createdAt,value
2023-02-25T00:01:38.346Z,2.95
2023-02-25T00:04:04.797Z,2.95
2023-02-25T00:06:31.282Z,2.93
2023-02-25T00:08:57.720Z,2.98
2023-02-25T00:11:25.981Z,2.98
2023-02-25T00:13:52.558Z,3.06
2023-02-25T00:16:21.462Z,3.13
2023-02-25T00:18:48.836Z,3.19
2023-02-25T00:21:16.749Z,3.25
2023-02-25T00:23:45.568Z,3.26
2023-02-25T00:26:12.623Z,3.30
2023-02-25T00:28:40.350Z,3.37
2023-02-25T00:31:09.078Z,3.49
2023-02-25T00:33:35.727Z,3.44
2023-02-25T00:36:06.154Z,3.52
2023-02-25T00:38:32.628Z,3.46
2023-02-25T00:40:59.063Z,3.31
2023-02-25T00:43:25.509Z,3.18
2023-02-25T00:45:51.965Z,3.05
2023-02-25T00:48:18.422Z,2.90
2023-02-25T00:50:44.841Z,2.90
2023-02-25T00:53:11.324Z,2.86
2023-02-25T00:55:37.812Z,2.85
2023-02-25T00:58:04.368Z,2.76
2023-02-25T01:00:35.944Z,2.79
2023-02-25T01:03:07.467Z,2.75
2023-02-25T01:05:33.969Z,2.77
2023-02-25T01:08:00.754Z,2.83
2023-02-25T01:10:28.522Z,2.81
2023-02-25T01:12:55.060Z,2.85
2023-02-25T01:15:21.509Z,2.83
2023-02-25T01:17:47.966Z,2.75
2023-02-25T01:20:19.760Z,2.70
2023-02-25T01:22:46.265Z,2.85
2023-02-25T01:25:13.968Z,2.57
2023-02-25T01:27:40.503Z,2.60
2023-02-25T01:30:08.285Z,2.67
2023-02-25T01:32:35.312Z,2.62
2023-02-25T01:35:02.363Z,2.63
2023-02-25T01:37:29.635Z,2.59
2023-02-25T01:39:56.515Z,2.31
2023-02-25T01:42:23.785Z,2.27
2023-02-25T01:45:18.300Z,2.28
2023-02-25T01:47:48.448Z,2.38
2023-02-25T01:50:20.126Z,2.40
2023-02-25T01:52:47.152Z,2.52
2023-02-25T01:55:13.890Z,2.55
2023-02-25T01:57:40.600Z,2.55
2023-02-25T02:00:17.525Z,2.48
2023-02-25T02:02:47.151Z,2.42
2023-02-25T02:05:15.155Z,2.29
2023-02-25T02:07:42.342Z,2.03
2023-02-25T02:10:09.694Z,1.96
2023-02-25T02:12:40.209Z,1.87
2023-02-25T02:15:10.903Z,1.67
2023-02-25T02:17:58.777Z,1.62
2023-02-25T02:20:51.411Z,1.69
2023-02-25T02:23:30.667Z,1.84
2023-02-25T02:26:03.238Z,1.68
2023-02-25T02:28:42.792Z,1.71
2023-02-25T02:31:31.424Z,1.74
2023-02-25T02:34:06.832Z,1.84
2023-02-25T02:36:52.068Z,1.96
2023-02-25T02:40:17.381Z,2.26
2023-02-25T02:42:52.413Z,2.29
2023-02-25T02:45:40.714Z,2.31
2023-02-25T02:48:17.171Z,2.31
2023-02-25T02:50:55.564Z,2.36
2023-02-25T02:53:31.900Z,2.16
2023-02-25T02:56:03.297Z,2.03
2023-02-25T02:58:35.246Z,1.79
2023-02-25T03:01:16.240Z,1.65
2023-02-25T03:03:49.974Z,1.85
2023-02-25T03:06:24.614Z,1.97
2023-02-25T03:08:56.749Z,2.29
2023-02-25T03:11:23.645Z,2.30
2023-02-25T03:13:51.941Z,2.40
2023-02-25T03:16:37.452Z,2.63
2023-02-25T03:19:21.354Z,2.72
2023-02-25T03:21:56.381Z,2.71
2023-02-25T03:24:28.914Z,2.71
2023-02-25T03:26:55.528Z,2.64
2023-02-25T03:29:25.332Z,2.58
2023-02-25T03:31:59.304Z,2.68
2023-02-25T03:34:35.965Z,2.71
2023-02-25T03:37:15.457Z,2.73
2023-02-25T03:39:46.863Z,2.71
2023-02-25T03:42:19.808Z,2.86
2023-02-25T03:44:50.802Z,2.88
2023-02-25T03:47:19.454Z,2.79
2023-02-25T03:50:10.088Z,2.88
2023-02-25T03:52:40.503Z,2.97
2023-02-25T03:55:17.198Z,2.90
2023-02-25T03:57:47.888Z,2.87
2023-02-25T04:00:22.891Z,2.77
2023-02-25T04:02:50.401Z,2.96
2023-02-25T04:05:18.883Z,2.96
2023-02-25T04:07:45.717Z,2.97
2023-02-25T04:10:16.854Z,3.04
2023-02-25T04:12:44.707Z,3.07
2023-02-25T04:15:14.390Z,3.14
2023-02-25T04:17:41.185Z,3.18
2023-02-25T04:20:08.614Z,3.12
2023-02-25T04:22:35.133Z,3.14
2023-02-25T04:25:01.634Z,3.12
2023-02-25T04:27:28.101Z,3.19
2023-02-25T04:29:54.599Z,3.09
2023-02-25T04:32:21.283Z,2.92
2023-02-25T04:34:47.862Z,3.00
2023-02-25T04:37:14.372Z,3.13
2023-02-25T04:39:41.466Z,2.97
2023-02-25T04:42:08.027Z,3.14
2023-02-25T04:44:34.562Z,3.15
2023-02-25T04:47:01.161Z,3.02
2023-02-25T04:49:27.665Z,2.92
2023-02-25T04:51:54.510Z,3.04
2023-02-25T04:54:21.595Z,2.98
2023-02-25T04:56:48.757Z,3.10
2023-02-25T04:59:17.376Z,3.10
2023-02-25T05:01:44.062Z,3.11
2023-02-25T05:04:10.809Z,3.18
2023-02-25T05:06:37.369Z,3.10
2023-02-25T05:09:04.048Z,3.09
2023-02-25T05:11:30.741Z,2.95
2023-02-25T05:13:57.363Z,3.01
2023-02-25T05:16:25.265Z,2.87
2023-02-25T05:18:52.829Z,2.88
2023-02-25T05:21:21.895Z,2.87
2023-02-25T05:23:50.321Z,2.87
2023-02-25T05:26:18.551Z,2.83
2023-02-25T05:28:45.070Z,2.81
2023-02-25T05:31:12.813Z,2.79
2023-02-25T05:33:40.796Z,2.82
2023-02-25T05:36:08.839Z,2.87
2023-02-25T05:38:36.919Z,2.83
2023-02-25T05:41:05.946Z,2.75
2023-02-25T05:43:32.833Z,2.65
2023-02-25T05:46:01.466Z,2.68
2023-02-25T05:48:27.956Z,2.75
2023-02-25T05:51:04.140Z,2.68
2023-02-25T05:53:30.925Z,2.73
2023-02-25T05:55:57.445Z,2.70
2023-02-25T05:58:24.006Z,2.65
2023-02-25T06:00:50.685Z,2.81
2023-02-25T06:03:17.583Z,2.73
2023-02-25T06:05:45.683Z,2.82
2023-02-25T06:08:14.173Z,2.85
2023-02-25T06:10:40.726Z,2.84
2023-02-25T06:13:09.967Z,2.68
2023-02-25T06:15:41.229Z,2.81
2023-02-25T06:18:08.661Z,2.97
2023-02-25T06:20:35.704Z,2.87
2023-02-25T06:23:03.340Z,2.78
2023-02-25T06:25:30.095Z,2.78
2023-02-25T06:28:00.870Z,2.87
2023-02-25T06:30:29.217Z,2.88
2023-02-25T06:32:56.323Z,2.97
2023-02-25T06:35:23.518Z,2.96
2023-02-25T06:37:57.472Z,2.98
2023-02-25T06:40:24.054Z,3.06
2023-02-25T06:42:50.525Z,3.05
2023-02-25T06:45:17.187Z,3.04
2023-02-25T06:47:43.903Z,3.00
2023-02-25T06:50:12.141Z,2.94
2023-02-25T06:52:38.583Z,3.08
2023-02-25T06:55:06.794Z,2.98
2023-02-25T06:57:34.101Z,3.11
2023-02-25T07:00:00.605Z,3.14
2023-02-25T07:02:27.139Z,3.06
2023-02-25T07:04:54.738Z,3.02
2023-02-25T07:07:22.279Z,3.14
2023-02-25T07:09:48.926Z,3.22
2023-02-25T07:12:15.399Z,3.22
2023-02-25T07:14:41.923Z,3.29
2023-02-25T07:17:08.472Z,3.24
2023-02-25T07:19:34.965Z,3.17
2023-02-25T07:22:01.517Z,3.27
2023-02-25T07:24:28.045Z,3.37
2023-02-25T07:26:55.626Z,3.60
2023-02-25T07:29:22.448Z,3.91
2023-02-25T07:31:49.355Z,5.50
2023-02-25T07:34:16.013Z,7.62
2023-02-25T07:36:42.471Z,9.14
2023-02-25T07:39:12.014Z,9.13
2023-02-25T07:41:39.259Z,8.77
2023-02-25T07:44:06.889Z,9.53
2023-02-25T07:46:33.645Z,9.82
2023-02-25T07:49:01.202Z,9.99
2023-02-25T07:51:28.501Z,9.85
2023-02-25T07:53:57.511Z,8.39
2023-02-25T07:56:26.198Z,8.15
2023-02-25T07:58:52.792Z,7.38
2023-02-25T08:01:26.156Z,7.28
2023-02-25T08:03:55.725Z,7.61
2023-02-25T08:06:23.229Z,8.27
2023-02-25T08:08:52.109Z,8.42
2023-02-25T08:11:19.925Z,8.16
2023-02-25T08:13:47.021Z,7.21
2023-02-25T08:16:16.162Z,6.75
2023-02-25T08:18:43.007Z,6.10
2023-02-25T08:21:15.184Z,5.89
2023-02-25T08:23:41.635Z,5.73
2023-02-25T08:26:09.813Z,5.50
2023-02-25T08:28:37.392Z,5.75
2023-02-25T08:31:08.115Z,5.57
2023-02-25T08:33:34.743Z,5.50
2023-02-25T08:36:13.509Z,5.46
2023-02-25T08:38:40.362Z,5.38
2023-02-25T08:41:08.131Z,5.08
2023-02-25T08:43:35.830Z,4.93
2023-02-25T08:46:03.027Z,4.97
2023-02-25T08:48:33.078Z,4.94
2023-02-25T08:51:10.565Z,4.87
2023-02-25T08:53:38.867Z,4.76
2023-02-25T08:56:07.053Z,4.71
2023-02-25T08:58:33.737Z,4.56
2023-02-25T09:01:00.355Z,4.42
2023-02-25T09:03:27.474Z,4.41
2023-02-25T09:05:55.941Z,4.34
2023-02-25T09:08:22.502Z,4.23
2023-02-25T09:10:50.886Z,4.47
2023-02-25T09:13:17.761Z,5.04
2023-02-25T09:15:44.368Z,5.35
2023-02-25T09:18:14.183Z,5.21
2023-02-25T09:20:40.663Z,5.05
2023-02-25T09:23:07.150Z,4.89
2023-02-25T09:25:33.633Z,4.81
2023-02-25T09:28:00.114Z,4.69
2023-02-25T09:30:26.636Z,4.55
2023-02-25T09:32:53.293Z,4.30
2023-02-25T09:35:19.901Z,4.03
2023-02-25T09:37:46.363Z,3.82
2023-02-25T09:40:17.905Z,3.57
2023-02-25T09:42:56.331Z,3.57
2023-02-25T09:45:25.020Z,3.61
2023-02-25T09:47:59.975Z,3.68
2023-02-25T09:50:41.917Z,3.83
2023-02-25T09:53:24.414Z,3.90
2023-02-25T09:55:53.146Z,3.90
2023-02-25T09:58:36.129Z,4.12
2023-02-25T10:01:11.791Z,4.22
2023-02-25T10:04:00.267Z,4.37
2023-02-25T10:06:35.593Z,4.39
2023-02-25T10:09:20.368Z,4.60
2023-02-25T10:11:55.827Z,4.81
2023-02-25T10:14:41.987Z,4.95
2023-02-25T10:17:24.836Z,4.99
2023-02-25T10:20:18.230Z,5.25
2023-02-25T10:22:58.958Z,5.35
2023-02-25T10:25:30.609Z,5.22
2023-02-25T10:28:04.826Z,5.48
2023-02-25T10:30:38.271Z,5.28
2023-02-25T10:33:15.186Z,5.09
2023-02-25T10:35:42.955Z,5.39
2023-02-25T10:38:12.813Z,5.54
2023-02-25T10:40:41.002Z,5.74
2023-02-25T10:43:20.501Z,5.89
2023-02-25T10:45:51.469Z,6.19
2023-02-25T10:48:25.343Z,6.36
2023-02-25T10:51:05.755Z,6.29
2023-02-25T10:53:34.033Z,6.12
2023-02-25T10:56:01.797Z,6.01
2023-02-25T10:58:28.370Z,5.64
2023-02-25T11:00:59.057Z,5.55
2023-02-25T11:03:29.196Z,5.50
2023-02-25T11:06:10.648Z,5.43
2023-02-25T11:08:37.221Z,5.20
2023-02-25T11:11:17.571Z,5.00
2023-02-25T11:13:44.186Z,4.85
2023-02-25T11:16:13.690Z,4.72
2023-02-25T11:18:41.721Z,4.64
2023-02-25T11:21:13.020Z,4.62
2023-02-25T11:23:46.895Z,4.73
2023-02-25T11:26:17.168Z,4.61
2023-02-25T11:28:49.315Z,4.58
2023-02-25T11:31:20.462Z,4.77
2023-02-25T11:33:59.257Z,4.84
2023-02-25T11:36:35.497Z,4.96
2023-02-25T11:39:32.522Z,5.39
2023-02-25T11:42:21.684Z,5.54
2023-02-25T11:44:48.208Z,6.94
2023-02-25T11:47:26.426Z,8.05
2023-02-25T11:50:07.883Z,8.11
2023-02-25T11:52:43.493Z,9.84
2023-02-25T11:55:31.182Z,8.84
2023-02-25T11:58:10.775Z,10.18
2023-02-25T12:00:47.008Z,9.71
2023-02-25T12:03:34.871Z,10.24
2023-02-25T12:06:22.789Z,7.86
2023-02-25T12:08:58.574Z,6.61
2023-02-25T12:12:06.552Z,6.60
2023-02-25T12:14:52.616Z,10.41
2023-02-25T12:18:01.957Z,12.83
2023-02-25T12:20:47.686Z,12.58
2023-02-25T12:23:20.203Z,13.78
2023-02-25T12:26:06.559Z,14.32
2023-02-25T12:28:57.910Z,15.24
2023-02-25T12:31:39.633Z,14.82
2023-02-25T12:34:06.082Z,12.86
2023-02-25T12:36:38.508Z,12.50
2023-02-25T12:39:26.271Z,10.53
2023-02-25T12:42:01.755Z,11.59
2023-02-25T12:44:34.286Z,10.66
2023-02-25T12:47:19.593Z,11.90
2023-02-25T12:50:11.159Z,12.78
2023-02-25T12:52:43.698Z,11.65
2023-02-25T12:55:19.366Z,13.03
2023-02-25T12:57:57.244Z,11.56
2023-02-25T13:01:02.237Z,12.46
2023-02-25T13:04:03.251Z,11.37
2023-02-25T13:06:48.068Z,11.83
2023-02-25T13:09:56.489Z,11.07
2023-02-25T13:12:41.975Z,9.03
2023-02-25T13:15:20.424Z,8.72
2023-02-25T13:17:53.341Z,8.48
2023-02-25T13:20:35.549Z,8.08
2023-02-25T13:23:20.603Z,7.53
2023-02-25T13:26:06.013Z,7.44
2023-02-25T13:28:57.756Z,6.58
2023-02-25T13:31:54.080Z,6.30
2023-02-25T13:34:49.861Z,6.32
2023-02-25T13:37:25.800Z,6.69
2023-02-25T13:40:05.315Z,6.93
2023-02-25T13:42:53.984Z,7.29
2023-02-25T13:45:46.718Z,7.27
2023-02-25T13:48:50.639Z,6.89
2023-02-25T13:51:30.251Z,6.79
2023-02-25T13:54:14.571Z,6.94
2023-02-25T13:57:10.367Z,6.51
2023-02-25T13:59:59.242Z,6.23
2023-02-25T14:03:09.669Z,5.87
2023-02-25T14:06:03.292Z,5.58
2023-02-25T14:08:51.691Z,5.49
2023-02-25T14:11:47.528Z,5.25
2023-02-25T14:14:32.504Z,4.82
2023-02-25T14:17:30.134Z,4.68
2023-02-25T14:20:11.762Z,4.68
2023-02-25T14:22:50.985Z,4.71
2023-02-25T14:25:56.005Z,4.74
2023-02-25T14:28:40.995Z,4.84
2023-02-25T14:31:20.550Z,4.99
2023-02-25T14:33:49.769Z,5.11
2023-02-25T14:36:44.348Z,4.92
2023-02-25T14:39:44.355Z,4.81
2023-02-25T14:42:19.917Z,5.05
2023-02-25T14:45:05.397Z,5.08
2023-02-25T14:47:40.030Z,4.93
2023-02-25T14:50:15.811Z,4.81
2023-02-25T14:53:38.777Z,5.10
2023-02-25T14:56:47.393Z,5.31
2023-02-25T14:59:37.376Z,5.14
2023-02-25T15:02:37.720Z,4.86
2023-02-25T15:05:44.410Z,4.73
2023-02-25T15:08:41.983Z,4.51
2023-02-25T15:11:46.200Z,3.96
2023-02-25T15:14:31.144Z,3.90
2023-02-25T15:17:35.638Z,4.02
2023-02-25T15:20:11.186Z,3.91
2023-02-25T15:22:39.026Z,3.91
2023-02-25T15:25:45.601Z,3.86
2023-02-25T15:28:30.206Z,3.83
2023-02-25T15:31:02.713Z,3.79
2023-02-25T15:33:41.149Z,3.94
2023-02-25T15:36:13.843Z,3.96
2023-02-25T15:38:48.130Z,3.78
2023-02-25T15:41:26.737Z,3.68
2023-02-25T15:44:00.355Z,3.55
2023-02-25T15:46:35.978Z,3.46
2023-02-25T15:49:02.765Z,3.48
2023-02-25T15:51:41.592Z,3.46
2023-02-25T15:54:10.034Z,3.36
2023-02-25T15:56:48.909Z,3.15
2023-02-25T15:59:47.367Z,2.90
2023-02-25T16:02:29.124Z,2.82
2023-02-25T16:04:59.931Z,2.85
2023-02-25T16:07:34.689Z,2.83
2023-02-25T16:10:07.543Z,2.67
2023-02-25T16:12:34.678Z,2.62
2023-02-25T16:15:02.901Z,2.62
2023-02-25T16:17:34.325Z,2.56
2023-02-25T16:20:30.204Z,2.39
2023-02-25T16:22:59.505Z,2.25
2023-02-25T16:25:42.286Z,2.25
2023-02-25T16:28:54.547Z,2.21
2023-02-25T16:31:29.966Z,2.10
2023-02-25T16:34:22.548Z,2.08
2023-02-25T16:37:16.950Z,1.97
2023-02-25T16:39:43.839Z,2.04
2023-02-25T16:42:16.165Z,2.04
2023-02-25T16:44:47.302Z,2.03
2023-02-25T16:47:26.536Z,1.94
2023-02-25T16:49:58.269Z,1.82
2023-02-25T16:52:27.899Z,1.88
2023-02-25T16:54:59.420Z,1.69
2023-02-25T16:57:26.357Z,1.65
2023-02-25T17:00:12.439Z,1.76
2023-02-25T17:02:50.587Z,1.75
2023-02-25T17:05:27.712Z,1.78
2023-02-25T17:07:56.606Z,1.78
2023-02-25T17:10:30.394Z,1.79
2023-02-25T17:12:59.004Z,1.72
2023-02-25T17:15:34.988Z,1.78
2023-02-25T17:18:17.002Z,1.90
2023-02-25T17:20:43.530Z,1.95
2023-02-25T17:23:13.863Z,2.07
2023-02-25T17:25:42.975Z,2.09
2023-02-25T17:28:20.708Z,1.88
2023-02-25T17:30:47.419Z,1.87
2023-02-25T17:33:31.876Z,1.66
2023-02-25T17:36:24.453Z,1.65
2023-02-25T17:38:56.348Z,1.70
2023-02-25T17:41:24.309Z,1.68
2023-02-25T17:43:51.470Z,1.61
2023-02-25T17:46:31.217Z,1.57
2023-02-25T17:49:16.874Z,1.55
2023-02-25T17:51:43.760Z,1.53
2023-02-25T17:54:18.035Z,1.44
2023-02-25T17:56:44.957Z,1.40
2023-02-25T17:59:14.172Z,1.35
2023-02-25T18:02:01.148Z,1.31
2023-02-25T18:04:41.501Z,1.22
2023-02-25T18:07:28.277Z,1.20
2023-02-25T18:09:55.980Z,1.15
2023-02-25T18:12:29.019Z,1.10
2023-02-25T18:14:58.515Z,1.10
2023-02-25T18:17:34.723Z,1.07
2023-02-25T18:20:05.871Z,1.06
2023-02-25T18:22:41.132Z,1.04
2023-02-25T18:25:29.084Z,1.03
2023-02-25T18:27:55.693Z,1.01
2023-02-25T18:30:24.642Z,0.92
2023-02-25T18:32:51.744Z,0.78
2023-02-25T18:35:18.764Z,0.87
2023-02-25T18:37:47.421Z,1.03
2023-02-25T18:40:23.660Z,1.02
2023-02-25T18:42:50.196Z,0.98
2023-02-25T18:45:20.940Z,0.80
2023-02-25T18:47:47.972Z,0.72
2023-02-25T18:50:14.857Z,0.84
2023-02-25T18:52:41.569Z,0.87
2023-02-25T18:55:16.643Z,0.88
2023-02-25T18:57:43.337Z,0.91
2023-02-25T19:00:11.146Z,0.88
2023-02-25T19:02:56.640Z,0.83
2023-02-25T19:05:24.905Z,1.01
2023-02-25T19:07:52.186Z,1.05
2023-02-25T19:10:22.552Z,1.06
2023-02-25T19:12:50.767Z,1.20
2023-02-25T19:15:21.661Z,1.19
2023-02-25T19:17:49.252Z,1.27
2023-02-25T19:20:18.370Z,1.32
2023-02-25T19:22:47.364Z,1.25
2023-02-25T19:25:27.496Z,1.24
2023-02-25T19:27:55.940Z,1.22
2023-02-25T19:30:26.004Z,1.19
2023-02-25T19:32:52.572Z,1.11
2023-02-25T19:35:19.101Z,1.06
2023-02-25T19:37:45.623Z,1.07
2023-02-25T19:40:14.494Z,1.08
2023-02-25T19:42:42.830Z,1.05
2023-02-25T19:45:12.961Z,1.15
2023-02-25T19:47:39.585Z,1.08
2023-02-25T19:50:07.158Z,1.09
2023-02-25T19:52:33.896Z,0.98
2023-02-25T19:55:01.225Z,0.91
2023-02-25T19:57:28.158Z,0.83
2023-02-25T19:59:54.704Z,0.78
2023-02-25T20:02:21.141Z,0.72
2023-02-25T20:04:47.732Z,0.66
2023-02-25T20:07:15.471Z,0.61
2023-02-25T20:09:42.379Z,0.62
2023-02-25T20:12:09.355Z,0.60
2023-02-25T20:14:35.942Z,0.44
2023-02-25T20:17:02.485Z,0.51
2023-02-25T20:19:32.480Z,0.49
2023-02-25T20:22:01.324Z,0.38
2023-02-25T20:24:28.721Z,0.38
2023-02-25T20:26:55.918Z,0.26
2023-02-25T20:29:22.729Z,0.19
2023-02-25T20:31:49.291Z,0.15
2023-02-25T20:34:19.672Z,0.08
2023-02-25T20:37:04.316Z,0.07
2023-02-25T20:39:45.442Z,-0.03
2023-02-25T20:42:15.299Z,-0.18
2023-02-25T20:44:41.933Z,-0.15
2023-02-25T20:47:16.374Z,-0.14
2023-02-25T20:49:42.928Z,-0.22
2023-02-25T20:52:11.918Z,-0.24
2023-02-25T20:54:38.378Z,-0.33
2023-02-25T20:57:04.899Z,-0.44
2023-02-25T20:59:31.426Z,-0.40
2023-02-25T21:02:00.136Z,-0.40
2023-02-25T21:04:26.617Z,-0.46
2023-02-25T21:06:53.324Z,-0.44
2023-02-25T21:09:19.858Z,-0.45
2023-02-25T21:11:46.331Z,-0.36
2023-02-25T21:14:12.793Z,-0.34
2023-02-25T21:16:39.659Z,-0.32
2023-02-25T21:19:07.868Z,-0.47
2023-02-25T21:21:38.291Z,-0.49
2023-02-25T21:24:05.953Z,-0.39
2023-02-25T21:26:32.723Z,-0.42
2023-02-25T21:28:59.808Z,-0.45
2023-02-25T21:31:26.628Z,-0.46
2023-02-25T21:33:53.323Z,-0.58
2023-02-25T21:36:19.774Z,-0.56
2023-02-25T21:38:46.703Z,-0.60
2023-02-25T21:41:14.919Z,-0.60
2023-02-25T21:43:42.471Z,-0.65
2023-02-25T21:46:12.651Z,-0.82
2023-02-25T21:48:40.762Z,-0.84
2023-02-25T21:51:12.874Z,-0.98
2023-02-25T21:53:39.336Z,-0.96
2023-02-25T21:56:15.728Z,-1.00
2023-02-25T21:58:42.746Z,-1.03
2023-02-25T22:01:17.244Z,-1.04
2023-02-25T22:03:44.296Z,-1.05
2023-02-25T22:06:11.389Z,-1.07
2023-02-25T22:08:40.208Z,-1.09
2023-02-25T22:11:21.211Z,-1.19
2023-02-25T22:13:47.892Z,-1.19
2023-02-25T22:16:15.331Z,-1.42
2023-02-25T22:18:41.909Z,-1.52
2023-02-25T22:21:12.800Z,-1.95
2023-02-25T22:23:41.168Z,-1.98
2023-02-25T22:26:13.530Z,-2.29
2023-02-25T22:28:41.173Z,-2.32
2023-02-25T22:31:16.816Z,-2.70
2023-02-25T22:33:44.425Z,-2.69
2023-02-25T22:36:12.313Z,-2.58
2023-02-25T22:38:40.808Z,-2.36
2023-02-25T22:41:12.655Z,-2.34
2023-02-25T22:43:39.170Z,-2.33
2023-02-25T22:46:11.471Z,-2.36
2023-02-25T22:48:39.826Z,-2.60
2023-02-25T22:51:09.279Z,-2.58
2023-02-25T22:53:37.201Z,-2.81
2023-02-25T22:56:06.460Z,-2.88
2023-02-25T22:58:33.240Z,-3.08
2023-02-25T23:00:59.785Z,-3.09
2023-02-25T23:03:26.284Z,-3.12
2023-02-25T23:05:54.665Z,-3.14
2023-02-25T23:08:22.644Z,-3.06
2023-02-25T23:10:49.355Z,-3.15
2023-02-25T23:13:15.929Z,-3.36
2023-02-25T23:15:42.693Z,-3.30
2023-02-25T23:18:09.730Z,-3.36
2023-02-25T23:20:38.130Z,-3.30
2023-02-25T23:23:06.650Z,-3.20
2023-02-25T23:25:35.573Z,-3.30
2023-02-25T23:28:02.943Z,-3.21
2023-02-25T23:30:29.601Z,-3.38
2023-02-25T23:32:57.417Z,-3.50
2023-02-25T23:35:24.516Z,-3.49
2023-02-25T23:37:51.160Z,-3.55
2023-02-25T23:40:17.840Z,-3.50
2023-02-25T23:42:44.360Z,-3.67
2023-02-25T23:45:14.007Z,-3.49
2023-02-25T23:47:42.854Z,-3.71
2023-02-25T23:50:17.849Z,-3.65
2023-02-25T23:52:45.955Z,-3.60
2023-02-25T23:55:14.079Z,-3.70
2023-02-25T23:57:40.632Z,-3.46
